Time;durP1;ratioP1;P1;durP2;ratioP2;P2;SDS_P1;SDS_P2;PMS_P1;PMS_P2;Temp;Humidity;BMP_temperature;BMP_pressure;BME280_temperature;BME280_humidity;BME280_pressure;Samples;Min_cycle;Max_cycle;Signal;HPM_P1;HPM_P2
2023/10/27 00:01:34;;;;;;;12.55;2.25;;;;;;;;;;8091138;28;20036;-71
2023/10/27 00:05:35;;;;;;;13.73;2.53;;;;;;;;;;8093753;29;20063;-71
2023/10/27 00:09:37;;;;;;;6.03;2.15;;;;;;;;;;8093975;29;20039;-71
2023/10/27 00:13:37;;;;;;;8.65;1.90;;;;;;;;;;8095020;29;20056;-71
2023/10/27 00:17:37;;;;;;;7.95;2.30;;;;;;;;;;8092584;28;20040;-71
2023/10/27 00:21:38;;;;;;;5.97;1.92;;;;;;;;;;8092189;29;20055;-70
2023/10/27 00:25:38;;;;;;;7.53;2.20;;;;;;;;;;8090371;29;20032;-71
2023/10/27 00:29:39;;;;;;;5.45;1.95;;;;;;;;;;8090384;29;20023;-71
2023/10/27 00:33:40;;;;;;;7.13;1.90;;;;;;;;;;8088138;29;20032;-71
2023/10/27 00:37:40;;;;;;;8.05;2.17;;;;;;;;;;8094354;29;20051;-71
2023/10/27 00:41:40;;;;;;;15.77;2.03;;;;;;;;;;8091496;29;20039;-70
2023/10/27 00:45:41;;;;;;;16.38;2.42;;;;;;;;;;8096989;29;20130;-71
2023/10/27 00:49:42;;;;;;;12.13;2.17;;;;;;;;;;8092704;29;20564;-70
2023/10/27 00:53:42;;;;;;;9.77;1.92;;;;;;;;;;8090658;29;20720;-71
2023/10/27 00:57:42;;;;;;;11.35;2.03;;;;;;;;;;8091841;29;20040;-71
2023/10/27 01:01:42;;;;;;;9.32;2.00;;;;;;;;;;8090591;29;20036;-71
2023/10/27 01:05:43;;;;;;;8.70;2.03;;;;;;;;;;8091159;29;20039;-71
2023/10/27 01:09:43;;;;;;;15.38;2.40;;;;;;;;;;8088058;29;20046;-71
2023/10/27 01:13:43;;;;;;;10.15;2.13;;;;;;;;;;8089492;29;20036;-71
2023/10/27 01:17:44;;;;;;;10.38;2.40;;;;;;;;;;8085876;29;20044;-71
2023/10/27 01:21:44;;;;;;;11.53;2.30;;;;;;;;;;8089098;29;20027;-71
2023/10/27 01:25:44;;;;;;;15.95;2.53;;;;;;;;;;8086052;29;20304;-71
2023/10/27 01:29:44;;;;;;;9.27;2.17;;;;;;;;;;8088941;29;20036;-71
2023/10/27 01:33:45;;;;;;;11.88;2.15;;;;;;;;;;8091062;29;20044;-71
2023/10/27 01:37:45;;;;;;;16.52;2.80;;;;;;;;;;8088036;29;20481;-71
2023/10/27 01:41:45;;;;;;;17.95;2.88;;;;;;;;;;8090801;29;20034;-71
2023/10/27 01:45:45;;;;;;;10.45;2.22;;;;;;;;;;8093197;29;20043;-71
2023/10/27 01:49:46;;;;;;;14.50;2.50;;;;;;;;;;8094377;29;20090;-71
2023/10/27 01:53:46;;;;;;;16.15;2.58;;;;;;;;;;8094709;29;20038;-71
2023/10/27 01:57:46;;;;;;;18.73;2.90;;;;;;;;;;8094531;29;20036;-71
2023/10/27 02:01:46;;;;;;;17.52;3.55;;;;;;;;;;8096494;29;20028;-72
2023/10/27 02:05:47;;;;;;;11.35;2.78;;;;;;;;;;8095554;29;20036;-72
2023/10/27 02:09:48;;;;;;;14.40;2.85;;;;;;;;;;8092673;29;20449;-71
2023/10/27 02:13:49;;;;;;;12.77;2.72;;;;;;;;;;8097183;29;20039;-70
2023/10/27 02:17:49;;;;;;;15.45;2.97;;;;;;;;;;8090957;29;20135;-71
2023/10/27 02:21:49;;;;;;;13.75;2.78;;;;;;;;;;8096791;29;20138;-71
2023/10/27 02:25:49;;;;;;;8.98;2.60;;;;;;;;;;8098146;29;20051;-71
2023/10/27 02:29:49;;;;;;;9.00;2.03;;;;;;;;;;8097933;29;20067;-72
2023/10/27 02:33:50;;;;;;;9.85;2.08;;;;;;;;;;8101453;29;20471;-71
2023/10/27 02:37:50;;;;;;;7.72;1.48;;;;;;;;;;8110675;29;20032;-70
2023/10/27 02:41:50;;;;;;;10.35;2.10;;;;;;;;;;8105411;29;20976;-71
2023/10/27 02:46:01;;;;;;;6.65;1.90;;;;;;;;;;8103127;29;20048;-71
2023/10/27 02:50:01;;;;;;;5.38;1.67;;;;;;;;;;8096725;29;20035;-71
2023/10/27 02:54:02;;;;;;;4.40;1.40;;;;;;;;;;8104405;29;20043;-71
2023/10/27 02:58:02;;;;;;;5.28;1.60;;;;;;;;;;8120828;29;20028;-71
2023/10/27 03:02:02;;;;;;;5.50;1.80;;;;;;;;;;8155898;28;20099;-71
2023/10/27 03:06:03;;;;;;;4.30;1.38;;;;;;;;;;8129759;29;20381;-71
2023/10/27 03:10:03;;;;;;;7.72;1.75;;;;;;;;;;8143624;29;20032;-71
2023/10/27 03:14:04;;;;;;;6.68;1.92;;;;;;;;;;8142146;29;21074;-72
2023/10/27 03:18:04;;;;;;;4.82;1.40;;;;;;;;;;8139265;29;20475;-71
2023/10/27 03:22:04;;;;;;;4.63;1.53;;;;;;;;;;8144392;29;20019;-71
2023/10/27 03:26:04;;;;;;;2.40;1.15;;;;;;;;;;8120802;29;20290;-70
2023/10/27 03:30:05;;;;;;;7.10;1.65;;;;;;;;;;8111089;29;20048;-71
2023/10/27 03:34:05;;;;;;;3.10;1.02;;;;;;;;;;8107961;29;20035;-72
2023/10/27 03:38:06;;;;;;;4.13;1.13;;;;;;;;;;8115235;29;20511;-72
2023/10/27 03:42:07;;;;;;;3.30;1.20;;;;;;;;;;8110498;29;20072;-71
2023/10/27 03:46:07;;;;;;;4.15;1.00;;;;;;;;;;8094913;29;20268;-72
2023/10/27 03:50:07;;;;;;;4.28;1.40;;;;;;;;;;8096696;29;20088;-71
2023/10/27 03:54:07;;;;;;;3.17;1.27;;;;;;;;;;8098120;29;20031;-71
2023/10/27 03:58:17;;;;;;;4.47;1.10;;;;;;;;;;8095982;29;20028;-71
2023/10/27 04:02:17;;;;;;;3.45;1.00;;;;;;;;;;8096798;29;20036;-71
2023/10/27 04:06:17;;;;;;;3.03;1.00;;;;;;;;;;8095538;29;20038;-70
2023/10/27 04:10:18;;;;;;;3.40;1.13;;;;;;;;;;8099161;29;20123;-71
2023/10/27 04:14:18;;;;;;;3.00;1.20;;;;;;;;;;8097998;29;20047;-71
2023/10/27 04:18:18;;;;;;;3.03;1.00;;;;;;;;;;8094109;29;20044;-71
2023/10/27 04:22:18;;;;;;;1.70;1.17;;;;;;;;;;8098028;29;20024;-71
2023/10/27 04:26:18;;;;;;;1.88;1.00;;;;;;;;;;8094053;29;20280;-71
2023/10/27 04:30:19;;;;;;;2.60;0.95;;;;;;;;;;8095819;29;20024;-71
2023/10/27 04:34:20;;;;;;;7.35;1.20;;;;;;;;;;8098581;29;20056;-71
2023/10/27 04:38:20;;;;;;;3.40;1.10;;;;;;;;;;8098390;29;20024;-71
2023/10/27 04:42:20;;;;;;;1.38;1.05;;;;;;;;;;8098070;29;20707;-71
2023/10/27 04:46:20;;;;;;;2.80;1.10;;;;;;;;;;8098890;29;20044;-70
2023/10/27 04:50:21;;;;;;;4.13;1.30;;;;;;;;;;8099417;29;20028;-72
2023/10/27 04:54:21;;;;;;;3.13;1.20;;;;;;;;;;8099794;29;20055;-71
2023/10/27 04:58:21;;;;;;;4.88;1.33;;;;;;;;;;8103159;29;20038;-72
2023/10/27 05:02:21;;;;;;;3.17;1.15;;;;;;;;;;8101603;29;20032;-70
2023/10/27 05:06:22;;;;;;;4.05;1.83;;;;;;;;;;8105213;29;20039;-70
2023/10/27 05:10:22;;;;;;;4.28;1.60;;;;;;;;;;8105247;29;20040;-71
2023/10/27 05:14:22;;;;;;;6.03;1.70;;;;;;;;;;8105116;29;20070;-71
2023/10/27 05:18:22;;;;;;;1.98;1.27;;;;;;;;;;8100545;29;20071;-70
2023/10/27 05:22:30;;;;;;;4.32;1.60;;;;;;;;;;8111846;29;20086;-71
2023/10/27 05:26:30;;;;;;;2.75;1.70;;;;;;;;;;8101976;29;20028;-71
2023/10/27 05:30:35;;;;;;;6.25;2.00;;;;;;;;;;8103131;29;20155;-71
2023/10/27 05:34:35;;;;;;;5.57;2.45;;;;;;;;;;8108043;29;20405;-71
2023/10/27 05:38:35;;;;;;;6.40;2.30;;;;;;;;;;8102212;29;20015;-71
2023/10/27 05:42:35;;;;;;;4.47;2.20;;;;;;;;;;8102543;29;20091;-70
2023/10/27 05:46:36;;;;;;;2.40;1.52;;;;;;;;;;8104233;29;20280;-71
2023/10/27 05:50:36;;;;;;;4.55;1.63;;;;;;;;;;8090694;29;20694;-71
2023/10/27 05:54:36;;;;;;;4.07;1.23;;;;;;;;;;8098881;29;20039;-71
2023/10/27 05:58:36;;;;;;;2.15;1.20;;;;;;;;;;8105742;29;20418;-71
2023/10/27 06:02:37;;;;;;;1.13;1.00;;;;;;;;;;8105983;29;20068;-72
2023/10/27 06:06:37;;;;;;;1.48;1.00;;;;;;;;;;8111117;29;20020;-72
2023/10/27 06:10:37;;;;;;;3.72;1.00;;;;;;;;;;8110269;29;20114;-73
2023/10/27 06:14:43;;;;;;;1.77;0.90;;;;;;;;;;8107857;29;20079;-72
2023/10/27 06:18:44;;;;;;;12.20;1.17;;;;;;;;;;8100496;29;20043;-71
2023/10/27 06:22:45;;;;;;;155.80;4.55;;;;;;;;;;8111116;29;20143;-74
2023/10/27 06:26:45;;;;;;;193.27;5.90;;;;;;;;;;8124686;29;20047;-73
2023/10/27 06:30:45;;;;;;;36.13;2.22;;;;;;;;;;8121668;29;20068;-74
2023/10/27 06:34:46;;;;;;;111.70;4.05;;;;;;;;;;8122867;29;20032;-74
2023/10/27 06:38:46;;;;;;;13.90;1.47;;;;;;;;;;8122989;29;20523;-74
2023/10/27 06:42:46;;;;;;;3.60;1.10;;;;;;;;;;8122083;29;21226;-73
2023/10/27 06:46:48;;;;;;;2.28;1.45;;;;;;;;;;8125324;29;20063;-74
2023/10/27 06:50:48;;;;;;;2.05;1.33;;;;;;;;;;8118622;29;20032;-74
2023/10/27 06:54:49;;;;;;;1.80;1.23;;;;;;;;;;8117331;29;20393;-74
2023/10/27 06:58:52;;;;;;;1.58;1.02;;;;;;;;;;8126699;29;20035;-76
2023/10/27 07:02:53;;;;;;;3.60;1.00;;;;;;;;;;8114482;29;20039;-74
2023/10/27 07:06:54;;;;;;;0.80;0.80;;;;;;;;;;8120359;29;20031;-73
2023/10/27 07:10:58;;;;;;;0.80;0.80;;;;;;;;;;8120759;29;20031;-74
2023/10/27 07:14:58;;;;;;;;;;;;;;;;;;8134897;29;21023;-73
2023/10/27 07:18:58;;;;;;;4.57;0.70;;;;;;;;;;8122634;29;19930;-74
2023/10/27 07:22:58;;;;;;;0.82;0.60;;;;;;;;;;8124219;29;20027;-74
2023/10/27 07:26:58;;;;;;;2.53;0.60;;;;;;;;;;8116539;29;20024;-74
2023/10/27 07:30:59;;;;;;;0.55;0.52;;;;;;;;;;8120407;29;20047;-73
2023/10/27 07:34:59;;;;;;;0.60;0.60;;;;;;;;;;8110087;29;20032;-76
2023/10/27 07:38:59;;;;;;;0.60;0.60;;;;;;;;;;8106478;29;20031;-71
2023/10/27 07:43:00;;;;;;;1.13;0.70;;;;;;;;;;8112376;29;20019;-74
2023/10/27 07:47:00;;;;;;;0.57;0.57;;;;;;;;;;8114877;29;20043;-74
2023/10/27 07:51:00;;;;;;;0.60;0.60;;;;;;;;;;8108281;29;20096;-74
2023/10/27 07:55:01;;;;;;;0.85;0.68;;;;;;;;;;8117534;29;20023;-74
2023/10/27 07:59:01;;;;;;;1.27;0.77;;;;;;;;;;8116675;29;20035;-74
2023/10/27 08:03:01;;;;;;;1.03;0.60;;;;;;;;;;8114168;29;20360;-73
2023/10/27 08:07:01;;;;;;;2.00;0.52;;;;;;;;;;8107403;29;20804;-73
2023/10/27 08:11:04;;;;;;;1.00;0.68;;;;;;;;;;8105483;29;20028;-72
2023/10/27 08:15:06;;;;;;;0.85;0.75;;;;;;;;;;8107099;29;20628;-73
2023/10/27 08:19:06;;;;;;;0.98;0.52;;;;;;;;;;8105806;29;20481;-74
2023/10/27 08:23:06;;;;;;;2.13;0.60;;;;;;;;;;8099295;29;20119;-73
2023/10/27 08:27:06;;;;;;;1.05;0.50;;;;;;;;;;8100184;29;20256;-73
2023/10/27 08:31:07;;;;;;;2.53;0.60;;;;;;;;;;8106115;29;20028;-74
2023/10/27 08:35:07;;;;;;;0.50;0.50;;;;;;;;;;8101126;29;20039;-73
2023/10/27 08:39:08;;;;;;;0.83;0.50;;;;;;;;;;8107116;29;20481;-74
2023/10/27 08:43:10;;;;;;;1.75;0.60;;;;;;;;;;8110806;29;20280;-73
2023/10/27 08:47:12;;;;;;;0.70;0.50;;;;;;;;;;8099765;29;20080;-73
2023/10/27 08:51:13;;;;;;;0.55;0.55;;;;;;;;;;8115208;29;20020;-74
2023/10/27 08:55:14;;;;;;;2.38;0.75;;;;;;;;;;8112087;29;20817;-73
2023/10/27 08:59:14;;;;;;;2.03;0.63;;;;;;;;;;8115485;29;20608;-75
2023/10/27 09:03:15;;;;;;;0.60;0.60;;;;;;;;;;8109708;29;20036;-73
2023/10/27 09:07:15;;;;;;;3.08;0.70;;;;;;;;;;8110436;29;20028;-75
2023/10/27 09:11:17;;;;;;;2.25;0.70;;;;;;;;;;8109992;29;20119;-75
2023/10/27 09:15:17;;;;;;;0.77;0.60;;;;;;;;;;8107515;29;20150;-75
2023/10/27 09:19:19;;;;;;;1.63;0.80;;;;;;;;;;8111240;29;20032;-74
2023/10/27 09:23:20;;;;;;;1.15;0.65;;;;;;;;;;8108571;29;20367;-75
2023/10/27 09:27:27;;;;;;;2.65;0.68;;;;;;;;;;8109148;29;20039;-74
2023/10/27 09:31:34;;;;;;;2.15;0.60;;;;;;;;;;8106655;29;21095;-73
2023/10/27 09:35:34;;;;;;;1.95;0.65;;;;;;;;;;8105363;29;20028;-74
2023/10/27 09:39:34;;;;;;;1.75;0.60;;;;;;;;;;8104410;29;20059;-74
2023/10/27 09:43:37;;;;;;;1.50;1.20;;;;;;;;;;8120305;28;20035;-73
2023/10/27 09:47:37;;;;;;;1.40;0.80;;;;;;;;;;8109380;29;20778;-73
2023/10/27 09:51:40;;;;;;;1.77;0.73;;;;;;;;;;8107241;29;20102;-74
2023/10/27 09:55:42;;;;;;;5.50;1.10;;;;;;;;;;8105379;29;20051;-73
2023/10/27 09:59:43;;;;;;;1.83;0.90;;;;;;;;;;8106535;29;20064;-75
2023/10/27 10:03:43;;;;;;;2.72;1.20;;;;;;;;;;8113143;29;20082;-75
2023/10/27 10:07:44;;;;;;;1.27;0.87;;;;;;;;;;8124071;28;20032;-73
2023/10/27 10:11:48;;;;;;;2.13;1.10;;;;;;;;;;8118485;29;20294;-75
2023/10/27 10:15:58;;;;;;;6.47;1.40;;;;;;;;;;8115484;29;20107;-73
2023/10/27 10:19:58;;;;;;;1.95;0.93;;;;;;;;;;8118695;29;20032;-74
2023/10/27 10:23:58;;;;;;;4.03;1.10;;;;;;;;;;8111536;29;20048;-74
2023/10/27 10:28:07;;;;;;;2.90;1.20;;;;;;;;;;8117384;29;20039;-73
2023/10/27 10:32:26;;;;;;;3.38;1.30;;;;;;;;;;8106776;29;20038;-74
2023/10/27 10:36:27;;;;;;;2.92;1.15;;;;;;;;;;8114465;29;20078;-75
2023/10/27 10:40:30;;;;;;;3.05;1.00;;;;;;;;;;8115364;29;20031;-76
2023/10/27 10:44:31;;;;;;;3.80;1.10;;;;;;;;;;8120159;29;20028;-75
2023/10/27 10:48:32;;;;;;;2.08;1.15;;;;;;;;;;8112742;29;20052;-77
2023/10/27 10:52:36;;;;;;;3.67;1.13;;;;;;;;;;8114229;29;20750;-75
2023/10/27 10:56:36;;;;;;;3.83;1.00;;;;;;;;;;8111342;29;20040;-75
2023/10/27 11:00:39;;;;;;;3.07;1.23;;;;;;;;;;8112441;29;20044;-74
2023/10/27 11:04:39;;;;;;;4.75;1.33;;;;;;;;;;8109684;29;20294;-75
2023/10/27 11:08:40;;;;;;;4.90;1.75;;;;;;;;;;8115182;29;20028;-74
2023/10/27 11:12:40;;;;;;;3.75;1.30;;;;;;;;;;8116347;29;20091;-75
2023/10/27 11:16:41;;;;;;;3.83;1.30;;;;;;;;;;8107180;29;20486;-74
2023/10/27 11:20:45;;;;;;;4.17;1.20;;;;;;;;;;8102436;29;20028;-74
2023/10/27 11:24:45;;;;;;;;;;;;;;;;;;8102739;29;20054;-72
2023/10/27 11:28:45;;;;;;;7.68;1.38;;;;;;;;;;8105938;29;20037;-74
2023/10/27 11:33:04;;;;;;;5.47;1.50;;;;;;;;;;8102261;29;20067;-75
2023/10/27 11:37:08;;;;;;;7.47;1.63;;;;;;;;;;8108498;29;20055;-75
2023/10/27 11:41:10;;;;;;;7.57;1.50;;;;;;;;;;8108904;29;20641;-74
2023/10/27 11:45:11;;;;;;;5.50;1.63;;;;;;;;;;8107566;29;20019;-75
2023/10/27 11:49:12;;;;;;;3.05;1.27;;;;;;;;;;8108231;29;20024;-75
2023/10/27 11:53:12;;;;;;;3.70;1.02;;;;;;;;;;8115670;29;20041;-74
2023/10/27 11:57:13;;;;;;;3.55;1.27;;;;;;;;;;8108266;29;20138;-75
2023/10/27 12:01:13;;;;;;;3.60;1.43;;;;;;;;;;8113193;29;20043;-75
2023/10/27 12:05:13;;;;;;;6.35;1.35;;;;;;;;;;8110072;29;20287;-74
2023/10/27 12:09:13;;;;;;;2.97;1.17;;;;;;;;;;8112952;29;20408;-74
2023/10/27 12:13:15;;;;;;;5.10;1.17;;;;;;;;;;8108647;29;20135;-74
2023/10/27 12:17:15;;;;;;;2.42;1.27;;;;;;;;;;8114110;29;20040;-74
2023/10/27 12:21:15;;;;;;;5.38;1.13;;;;;;;;;;8108718;29;20044;-75
2023/10/27 12:25:16;;;;;;;4.10;1.20;;;;;;;;;;8102664;29;20182;-74
2023/10/27 12:29:17;;;;;;;3.22;0.90;;;;;;;;;;8110359;29;20035;-75
2023/10/27 12:33:19;;;;;;;4.15;1.02;;;;;;;;;;8113024;29;20131;-73
2023/10/27 12:37:19;;;;;;;2.70;1.00;;;;;;;;;;8110124;29;20036;-73
2023/10/27 12:41:20;;;;;;;4.13;1.00;;;;;;;;;;8105285;29;20046;-74
2023/10/27 12:45:20;;;;;;;2.90;1.05;;;;;;;;;;8112930;29;20074;-74
2023/10/27 12:49:20;;;;;;;1.40;0.90;;;;;;;;;;8108651;29;20027;-74
2023/10/27 12:53:20;;;;;;;1.58;0.80;;;;;;;;;;8108643;29;20654;-74
2023/10/27 12:57:22;;;;;;;1.07;0.90;;;;;;;;;;8106756;29;20883;-73
2023/10/27 13:01:22;;;;;;;3.83;1.20;;;;;;;;;;8105144;29;20048;-74
2023/10/27 13:05:23;;;;;;;3.88;1.10;;;;;;;;;;8116561;29;20122;-74
2023/10/27 13:09:23;;;;;;;2.60;0.93;;;;;;;;;;8111190;29;20020;-74
2023/10/27 13:13:24;;;;;;;1.55;1.00;;;;;;;;;;8106444;29;20115;-75
2023/10/27 13:17:24;;;;;;;2.78;0.85;;;;;;;;;;8100714;29;20047;-73
2023/10/27 13:21:25;;;;;;;2.30;0.90;;;;;;;;;;8099085;29;20390;-73
2023/10/27 13:25:25;;;;;;;6.05;0.98;;;;;;;;;;8100518;29;20028;-74
2023/10/27 13:29:25;;;;;;;7.00;0.80;;;;;;;;;;8104407;29;20024;-73
2023/10/27 13:33:26;;;;;;;2.97;0.90;;;;;;;;;;8098661;29;20047;-73
2023/10/27 13:37:29;;;;;;;2.70;1.00;;;;;;;;;;8107246;29;20024;-73
2023/10/27 13:41:34;;;;;;;2.60;0.80;;;;;;;;;;8107782;29;20039;-74
2023/10/27 13:45:35;;;;;;;2.13;0.80;;;;;;;;;;8110689;29;20119;-74
2023/10/27 13:49:37;;;;;;;0.93;0.80;;;;;;;;;;8101138;29;20508;-74
2023/10/27 13:53:37;;;;;;;2.05;0.90;;;;;;;;;;8111258;29;20150;-75
2023/10/27 13:57:38;;;;;;;2.60;0.80;;;;;;;;;;8121446;29;20095;-75
2023/10/27 14:01:39;;;;;;;1.27;0.70;;;;;;;;;;8136348;28;20055;-74
2023/10/27 14:05:39;;;;;;;2.22;0.93;;;;;;;;;;8105027;29;20035;-74
2023/10/27 14:09:40;;;;;;;3.70;1.20;;;;;;;;;;8112264;29;20028;-74
2023/10/27 14:13:46;;;;;;;3.38;1.00;;;;;;;;;;8127617;29;20116;-73
2023/10/27 14:17:46;;;;;;;2.58;0.82;;;;;;;;;;8112045;29;20071;-74
2023/10/27 14:21:48;;;;;;;3.55;1.02;;;;;;;;;;8117740;29;20039;-74
2023/10/27 14:25:48;;;;;;;1.92;1.05;;;;;;;;;;8115686;29;20028;-74
2023/10/27 14:29:49;;;;;;;1.53;0.80;;;;;;;;;;8117214;29;20139;-76
2023/10/27 14:33:50;;;;;;;2.83;0.90;;;;;;;;;;8118265;29;20039;-74
2023/10/27 14:37:53;;;;;;;3.40;1.00;;;;;;;;;;8119362;29;20024;-75
2023/10/27 14:41:53;;;;;;;1.50;0.88;;;;;;;;;;8117012;29;20461;-73
2023/10/27 14:45:58;;;;;;;2.83;1.00;;;;;;;;;;8121525;29;20032;-79
2023/10/27 14:49:58;;;;;;;1.00;0.70;;;;;;;;;;8126790;28;20489;-74
2023/10/27 14:53:59;;;;;;;2.75;0.90;;;;;;;;;;8111510;29;20402;-74
2023/10/27 14:58:00;;;;;;;3.00;0.80;;;;;;;;;;8114755;29;20084;-74
2023/10/27 15:02:00;;;;;;;2.85;1.00;;;;;;;;;;8124581;29;20486;-74
2023/10/27 15:06:02;;;;;;;2.53;0.80;;;;;;;;;;8123423;29;20028;-75
2023/10/27 15:10:14;;;;;;;3.03;0.90;;;;;;;;;;8120289;29;20355;-75
2023/10/27 15:14:14;;;;;;;2.40;1.10;;;;;;;;;;8115677;29;20031;-74
2023/10/27 15:18:14;;;;;;;1.48;0.90;;;;;;;;;;8107982;29;20111;-75
2023/10/27 15:22:14;;;;;;;5.70;0.98;;;;;;;;;;8117491;29;20031;-74
2023/10/27 15:26:15;;;;;;;4.50;1.00;;;;;;;;;;8111231;29;20063;-76
2023/10/27 15:30:16;;;;;;;1.38;0.93;;;;;;;;;;8112948;29;20023;-74
2023/10/27 15:34:18;;;;;;;3.75;1.42;;;;;;;;;;8101671;29;20023;-74
2023/10/27 15:38:18;;;;;;;4.20;1.20;;;;;;;;;;8132103;29;20055;-74
2023/10/27 15:42:19;;;;;;;2.27;0.80;;;;;;;;;;8135147;29;20028;-74
2023/10/27 15:46:19;;;;;;;2.03;0.90;;;;;;;;;;8142323;28;20300;-74
2023/10/27 15:50:19;;;;;;;2.88;1.02;;;;;;;;;;8127622;29;20023;-74
2023/10/27 15:54:20;;;;;;;2.03;0.98;;;;;;;;;;8116004;29;20115;-75
2023/10/27 15:58:22;;;;;;;4.57;1.35;;;;;;;;;;8096437;29;20433;-74
2023/10/27 16:02:22;;;;;;;4.50;1.40;;;;;;;;;;8115460;29;20151;-75
2023/10/27 16:06:24;;;;;;;3.13;1.10;;;;;;;;;;8102665;29;20849;-75
2023/10/27 16:10:26;;;;;;;4.38;1.40;;;;;;;;;;8139218;29;20055;-75
2023/10/27 16:14:29;;;;;;;5.22;1.50;;;;;;;;;;8143094;28;20050;-75
2023/10/27 16:18:29;;;;;;;4.65;1.40;;;;;;;;;;8134412;29;20040;-74
2023/10/27 16:22:32;;;;;;;3.28;1.05;;;;;;;;;;8135003;28;20031;-77
2023/10/27 16:26:35;;;;;;;5.47;1.52;;;;;;;;;;8110213;29;20066;-74
2023/10/27 16:30:36;;;;;;;7.47;1.55;;;;;;;;;;8103954;29;20036;-73
2023/10/27 16:34:36;;;;;;;5.45;1.23;;;;;;;;;;8113173;29;20040;-75
2023/10/27 16:38:36;;;;;;;3.13;1.23;;;;;;;;;;8111421;29;20024;-74
2023/10/27 16:42:36;;;;;;;4.57;1.42;;;;;;;;;;8114571;29;20257;-74
2023/10/27 16:46:37;;;;;;;2.47;1.58;;;;;;;;;;8101520;29;20032;-74
2023/10/27 16:50:37;;;;;;;5.70;1.50;;;;;;;;;;8090669;29;20027;-73
2023/10/27 16:54:37;;;;;;;4.40;1.40;;;;;;;;;;8093737;29;20781;-73
2023/10/27 16:58:40;;;;;;;5.53;1.15;;;;;;;;;;8096070;29;20028;-74
2023/10/27 17:02:42;;;;;;;5.13;1.50;;;;;;;;;;8094490;29;20401;-73
2023/10/27 17:06:43;;;;;;;2.78;1.25;;;;;;;;;;8090306;29;20035;-73
2023/10/27 17:10:44;;;;;;;5.10;1.40;;;;;;;;;;8089178;29;21004;-71
2023/10/27 17:14:53;;;;;;;2.13;1.30;;;;;;;;;;8094118;29;20646;-72
2023/10/27 17:18:53;;;;;;;6.57;4.25;;;;;;;;;;8091647;29;20040;-76
2023/10/27 17:22:53;;;;;;;5.03;1.50;;;;;;;;;;8092002;29;20080;-72
2023/10/27 17:26:55;;;;;;;4.25;1.70;;;;;;;;;;8089328;29;20058;-72
2023/10/27 17:30:55;;;;;;;5.05;2.45;;;;;;;;;;8088290;29;20159;-72
2023/10/27 17:34:56;;;;;;;5.38;1.60;;;;;;;;;;8089023;29;20036;-73
2023/10/27 17:38:56;;;;;;;2.95;1.52;;;;;;;;;;8086207;29;20028;-73
2023/10/27 17:42:57;;;;;;;2.85;1.73;;;;;;;;;;8085563;29;20063;-72
2023/10/27 17:46:57;;;;;;;6.97;2.00;;;;;;;;;;8084619;29;20047;-72
2023/10/27 17:51:00;;;;;;;5.67;1.67;;;;;;;;;;8082870;29;20056;-73
2023/10/27 17:55:00;;;;;;;3.42;1.50;;;;;;;;;;8084765;29;20429;-71
2023/10/27 17:59:02;;;;;;;3.97;1.35;;;;;;;;;;8082992;29;20067;-71
2023/10/27 18:03:03;;;;;;;3.05;1.10;;;;;;;;;;8083744;29;20052;-72
2023/10/27 18:07:03;;;;;;;4.60;1.30;;;;;;;;;;8083531;29;20143;-71
2023/10/27 18:11:05;;;;;;;4.10;1.10;;;;;;;;;;8085495;29;20083;-72
2023/10/27 18:15:05;;;;;;;4.20;1.15;;;;;;;;;;8083652;29;20071;-72
2023/10/27 18:19:06;;;;;;;4.70;1.17;;;;;;;;;;8095901;29;20031;-72
2023/10/27 18:23:06;;;;;;;3.10;0.90;;;;;;;;;;8098789;29;20471;-73
2023/10/27 18:27:07;;;;;;;2.03;1.00;;;;;;;;;;8087679;29;20504;-73
2023/10/27 18:31:07;;;;;;;4.75;2.05;;;;;;;;;;8086417;29;20794;-73
2023/10/27 18:35:07;;;;;;;3.30;1.90;;;;;;;;;;8081949;29;20290;-72
2023/10/27 18:39:08;;;;;;;9.17;3.13;;;;;;;;;;8087080;29;20055;-73
2023/10/27 18:43:09;;;;;;;8.23;2.92;;;;;;;;;;8086008;29;20036;-72
2023/10/27 18:47:10;;;;;;;10.88;7.32;;;;;;;;;;8082148;29;20036;-72
2023/10/27 18:51:11;;;;;;;8.85;3.80;;;;;;;;;;8078811;29;20028;-73
2023/10/27 18:55:17;;;;;;;3.30;1.38;;;;;;;;;;8081991;29;20376;-73
2023/10/27 18:59:18;;;;;;;5.18;1.15;;;;;;;;;;8082543;29;20027;-71
2023/10/27 19:03:20;;;;;;;4.28;1.10;;;;;;;;;;8080540;29;20048;-71
2023/10/27 19:07:20;;;;;;;4.90;1.30;;;;;;;;;;8087427;29;20591;-72
2023/10/27 19:11:22;;;;;;;3.97;1.02;;;;;;;;;;8079069;29;20032;-71
2023/10/27 19:15:24;;;;;;;7.18;1.35;;;;;;;;;;8079342;28;20073;-72
2023/10/27 19:19:26;;;;;;;3.45;1.35;;;;;;;;;;8084365;29;20062;-71
2023/10/27 19:23:26;;;;;;;5.88;1.67;;;;;;;;;;8088296;29;20012;-71
2023/10/27 19:27:28;;;;;;;5.78;1.25;;;;;;;;;;8083431;29;20032;-72
2023/10/27 19:31:28;;;;;;;4.03;1.23;;;;;;;;;;8079690;29;21030;-72
2023/10/27 19:35:29;;;;;;;6.32;1.65;;;;;;;;;;8083822;29;21302;-73
2023/10/27 19:39:31;;;;;;;3.85;1.33;;;;;;;;;;8085612;29;20043;-72
2023/10/27 19:43:31;;;;;;;5.35;1.23;;;;;;;;;;8082709;29;20024;-72
2023/10/27 19:47:32;;;;;;;6.03;1.65;;;;;;;;;;8081771;29;20036;-73
2023/10/27 19:51:32;;;;;;;3.60;1.27;;;;;;;;;;8081400;29;20035;-73
2023/10/27 19:55:33;;;;;;;3.30;1.23;;;;;;;;;;8090063;29;20472;-72
2023/10/27 19:59:34;;;;;;;4.50;1.10;;;;;;;;;;8084042;29;20042;-71
2023/10/27 20:03:34;;;;;;;7.75;1.23;;;;;;;;;;8079899;29;20040;-72
2023/10/27 20:07:34;;;;;;;6.65;1.40;;;;;;;;;;8082292;29;20087;-71
2023/10/27 20:11:35;;;;;;;6.47;1.07;;;;;;;;;;8085594;29;20063;-71
2023/10/27 20:15:36;;;;;;;5.57;1.15;;;;;;;;;;8083597;29;20298;-71
2023/10/27 20:19:36;;;;;;;4.70;1.33;;;;;;;;;;8083634;29;20037;-71
2023/10/27 20:23:36;;;;;;;2.10;0.90;;;;;;;;;;8084397;29;20079;-71
2023/10/27 20:27:38;;;;;;;2.92;1.05;;;;;;;;;;8082188;29;20178;-71
2023/10/27 20:31:38;;;;;;;6.07;1.17;;;;;;;;;;8081530;29;20176;-71
2023/10/27 20:35:39;;;;;;;5.47;1.42;;;;;;;;;;8084150;29;20024;-72
2023/10/27 20:39:40;;;;;;;2.83;1.20;;;;;;;;;;8086992;29;20031;-71
2023/10/27 20:43:40;;;;;;;3.87;1.30;;;;;;;;;;8082420;29;20027;-72
2023/10/27 20:47:41;;;;;;;3.63;1.30;;;;;;;;;;8086083;28;20027;-71
2023/10/27 20:51:43;;;;;;;2.55;1.10;;;;;;;;;;8081367;29;20036;-71
2023/10/27 20:55:44;;;;;;;5.10;1.20;;;;;;;;;;8083032;29;20031;-71
2023/10/27 20:59:45;;;;;;;1.83;0.90;;;;;;;;;;8078978;29;20028;-71
2023/10/27 21:03:47;;;;;;;4.65;1.35;;;;;;;;;;8080171;28;20044;-72
2023/10/27 21:07:48;;;;;;;5.28;1.13;;;;;;;;;;8081233;29;20508;-73
2023/10/27 21:11:49;;;;;;;2.63;0.90;;;;;;;;;;8077366;29;20054;-73
2023/10/27 21:15:49;;;;;;;2.70;0.93;;;;;;;;;;8075304;29;20139;-73
2023/10/27 21:19:49;;;;;;;3.00;1.13;;;;;;;;;;8076866;29;21093;-74
2023/10/27 21:23:49;;;;;;;4.20;1.13;;;;;;;;;;8081317;29;20027;-74
2023/10/27 21:27:49;;;;;;;2.50;1.00;;;;;;;;;;8088410;29;20118;-74
2023/10/27 21:31:50;;;;;;;3.97;1.10;;;;;;;;;;8081277;29;20051;-73
2023/10/27 21:35:52;;;;;;;2.05;0.77;;;;;;;;;;8078752;29;20027;-73
2023/10/27 21:39:52;;;;;;;3.17;1.10;;;;;;;;;;8081426;29;20747;-74
2023/10/27 21:43:53;;;;;;;4.07;1.08;;;;;;;;;;8084702;29;20556;-73
2023/10/27 21:47:53;;;;;;;3.08;1.20;;;;;;;;;;8097584;28;20110;-73
2023/10/27 21:51:53;;;;;;;3.08;1.00;;;;;;;;;;8080599;29;20049;-74
2023/10/27 21:55:54;;;;;;;3.40;1.13;;;;;;;;;;8075519;29;20020;-74
2023/10/27 21:59:55;;;;;;;2.15;1.10;;;;;;;;;;8079510;29;20802;-74
2023/10/27 22:03:56;;;;;;;2.38;1.08;;;;;;;;;;8080103;29;20094;-74
2023/10/27 22:07:56;;;;;;;3.63;1.10;;;;;;;;;;8085683;28;20346;-73
2023/10/27 22:11:56;;;;;;;2.20;1.00;;;;;;;;;;8095857;28;20031;-74
2023/10/27 22:15:59;;;;;;;1.95;0.88;;;;;;;;;;8081920;29;20043;-74
2023/10/27 22:19:59;;;;;;;1.73;0.90;;;;;;;;;;8075964;29;20091;-74
2023/10/27 22:23:59;;;;;;;1.98;0.90;;;;;;;;;;8071197;29;20024;-73
2023/10/27 22:28:00;;;;;;;1.92;0.80;;;;;;;;;;8073994;29;20092;-74
2023/10/27 22:32:00;;;;;;;1.17;0.60;;;;;;;;;;8077732;29;20035;-74
2023/10/27 22:36:00;;;;;;;2.65;0.82;;;;;;;;;;8072119;29;20761;-73
2023/10/27 22:40:00;;;;;;;2.43;0.80;;;;;;;;;;8074637;29;20027;-74
2023/10/27 22:44:01;;;;;;;2.07;0.87;;;;;;;;;;8088044;29;20296;-73
2023/10/27 22:48:01;;;;;;;2.38;0.75;;;;;;;;;;8092131;29;20445;-73
2023/10/27 22:52:02;;;;;;;1.40;0.70;;;;;;;;;;8093074;29;20729;-75
2023/10/27 22:56:03;;;;;;;4.70;0.70;;;;;;;;;;8091673;29;20035;-73
2023/10/27 23:00:04;;;;;;;0.80;0.65;;;;;;;;;;8091228;29;20155;-74
2023/10/27 23:04:04;;;;;;;1.25;0.65;;;;;;;;;;8093650;29;20135;-73
2023/10/27 23:08:05;;;;;;;3.22;0.60;;;;;;;;;;8093359;29;20020;-73
2023/10/27 23:12:06;;;;;;;0.80;0.70;;;;;;;;;;8091577;29;20031;-73
2023/10/27 23:16:06;;;;;;;0.85;0.70;;;;;;;;;;8092003;29;20039;-73
2023/10/27 23:20:07;;;;;;;0.55;0.55;;;;;;;;;;8090465;29;20739;-73
2023/10/27 23:24:07;;;;;;;1.92;0.80;;;;;;;;;;8093315;29;20020;-73
2023/10/27 23:28:08;;;;;;;0.80;0.70;;;;;;;;;;8092062;29;20032;-73
2023/10/27 23:32:08;;;;;;;1.13;0.63;;;;;;;;;;8096163;29;20067;-73
2023/10/27 23:36:09;;;;;;;1.48;0.70;;;;;;;;;;8091189;29;20096;-73
2023/10/27 23:40:13;;;;;;;1.40;0.70;;;;;;;;;;8092160;29;20027;-72
2023/10/27 23:44:16;;;;;;;4.22;0.90;;;;;;;;;;8093152;29;20020;-73
2023/10/27 23:48:16;;;;;;;1.88;0.80;;;;;;;;;;8070228;29;20029;-73
2023/10/27 23:52:16;;;;;;;2.13;0.80;;;;;;;;;;8061580;29;20552;-73
2023/10/27 23:56:16;;;;;;;3.37;0.90;;;;;;;;;;8063418;29;20044;-73
